createdAt,value
2023-05-08T00:00:27.726Z,85.99
2023-05-08T00:07:11.271Z,86.26
2023-05-08T00:10:13.977Z,86.77
2023-05-08T00:13:17.064Z,86.37
2023-05-08T00:16:19.555Z,86.24
2023-05-08T00:19:22.346Z,86.37
2023-05-08T00:22:24.789Z,86.70
2023-05-08T00:25:27.935Z,86.55
2023-05-08T00:28:30.332Z,86.05
2023-05-08T00:31:33.069Z,85.53
2023-05-08T00:34:36.025Z,85.97
2023-05-08T00:37:40.931Z,85.17
2023-05-08T00:40:43.772Z,84.82
2023-05-08T00:43:46.570Z,85.56
2023-05-08T00:46:49.241Z,85.80
2023-05-08T00:49:54.068Z,85.17
2023-05-08T00:52:57.644Z,86.32
2023-05-08T00:56:00.352Z,87.17
2023-05-08T00:59:04.006Z,86.59
2023-05-08T01:02:07.056Z,86.44
2023-05-08T01:05:09.811Z,86.20
2023-05-08T01:08:12.654Z,86.37
2023-05-08T01:11:47.934Z,85.62
2023-05-08T01:15:00.196Z,85.76
2023-05-08T01:18:13.975Z,86.00
2023-05-08T01:21:40.134Z,86.72
2023-05-08T01:25:09.904Z,86.93
2023-05-08T01:28:17.328Z,88.67
2023-05-08T01:32:03.082Z,88.46
2023-05-08T01:35:24.727Z,88.01
2023-05-08T01:38:51.964Z,87.78
2023-05-08T01:42:05.490Z,87.71
2023-05-08T01:45:14.838Z,87.09
2023-05-08T01:48:34.604Z,86.45
2023-05-08T01:51:49.882Z,85.97
2023-05-08T01:55:05.136Z,85.75
2023-05-08T01:58:10.288Z,86.00
2023-05-08T02:01:14.109Z,87.48
2023-05-08T02:04:17.912Z,87.36
2023-05-08T02:07:22.965Z,86.44
2023-05-08T02:10:26.319Z,86.75
2023-05-08T02:13:30.715Z,87.01
2023-05-08T02:16:33.742Z,86.82
2023-05-08T02:19:40.176Z,86.88
2023-05-08T02:22:46.490Z,86.48
2023-05-08T02:25:49.257Z,86.64
2023-05-08T02:28:53.744Z,86.76
2023-05-08T02:31:56.430Z,87.26
2023-05-08T02:35:03.605Z,86.71
2023-05-08T02:38:10.961Z,86.38
2023-05-08T02:41:14.704Z,86.81
2023-05-08T02:44:17.657Z,87.24
2023-05-08T02:47:28.335Z,88.15
2023-05-08T02:51:06.843Z,88.23
2023-05-08T02:54:10.805Z,87.64
2023-05-08T02:57:38.453Z,87.06
2023-05-08T03:00:49.676Z,88.37
2023-05-08T03:04:06.481Z,87.98
2023-05-08T03:07:09.417Z,87.63
2023-05-08T03:10:14.136Z,87.94
2023-05-08T03:13:19.692Z,87.66
2023-05-08T03:16:24.487Z,87.02
2023-05-08T03:19:38.173Z,87.53
2023-05-08T03:22:43.419Z,88.67
2023-05-08T03:25:49.670Z,89.51
2023-05-08T03:28:53.049Z,88.97
2023-05-08T03:32:01.239Z,87.90
2023-05-08T03:35:04.321Z,89.45
2023-05-08T03:38:08.204Z,87.85
2023-05-08T03:41:11.637Z,88.05
2023-05-08T03:44:14.756Z,88.77
2023-05-08T03:47:21.877Z,89.64
2023-05-08T03:50:25.100Z,89.55
2023-05-08T03:53:27.561Z,90.10
2023-05-08T03:56:30.437Z,90.13
2023-05-08T03:59:50.109Z,90.66
2023-05-08T04:03:02.381Z,90.70
2023-05-08T04:06:14.619Z,91.41
2023-05-08T04:09:21.666Z,91.97
2023-05-08T04:12:37.747Z,91.96
2023-05-08T04:15:53.261Z,92.02
2023-05-08T04:19:03.113Z,92.26
2023-05-08T04:22:08.793Z,93.26
2023-05-08T04:25:15.518Z,92.10
2023-05-08T04:28:19.025Z,91.56
2023-05-08T04:31:23.001Z,93.49
2023-05-08T04:34:26.136Z,93.74
2023-05-08T04:37:30.298Z,94.14
2023-05-08T04:40:34.465Z,93.74
2023-05-08T04:43:38.274Z,94.87
2023-05-08T04:46:42.786Z,95.04
2023-05-08T04:49:46.053Z,95.64
2023-05-08T04:52:49.200Z,96.30
2023-05-08T04:55:51.774Z,96.41
2023-05-08T04:58:54.705Z,97.37
2023-05-08T05:01:57.859Z,98.42
2023-05-08T05:05:01.628Z,100.00
2023-05-08T05:08:05.574Z,100.00
2023-05-08T05:11:08.409Z,100.00
2023-05-08T05:14:10.957Z,100.00
2023-05-08T05:17:13.940Z,100.00
2023-05-08T05:20:17.143Z,100.00
2023-05-08T05:23:23.121Z,100.00
2023-05-08T05:26:25.764Z,100.00
2023-05-08T05:29:29.118Z,100.00
2023-05-08T05:32:31.637Z,100.00
2023-05-08T05:35:34.376Z,100.00
2023-05-08T05:38:37.244Z,100.00
2023-05-08T05:41:44.363Z,100.00
2023-05-08T05:44:47.488Z,100.00
2023-05-08T05:47:50.787Z,100.00
2023-05-08T05:50:55.921Z,100.00
2023-05-08T05:53:59.953Z,100.00
2023-05-08T05:57:02.526Z,100.00
2023-05-08T06:00:06.767Z,100.00
2023-05-08T06:03:16.692Z,98.44
2023-05-08T06:06:19.541Z,91.49
2023-05-08T06:09:23.070Z,89.62
2023-05-08T06:12:29.676Z,80.27
2023-05-08T06:15:36.889Z,81.00
2023-05-08T06:18:49.036Z,72.47
2023-05-08T06:21:52.363Z,74.46
2023-05-08T06:24:55.040Z,67.89
2023-05-08T06:27:58.081Z,66.03
2023-05-08T06:31:00.925Z,64.71
2023-05-08T06:34:04.132Z,64.13
2023-05-08T06:37:07.011Z,58.80
2023-05-08T06:40:14.253Z,57.10
2023-05-08T06:43:17.418Z,60.52
2023-05-08T06:46:20.336Z,57.09
2023-05-08T06:49:23.267Z,53.25
2023-05-08T06:52:27.120Z,49.24
2023-05-08T06:55:29.585Z,50.28
2023-05-08T06:58:32.727Z,50.77
2023-05-08T07:01:35.519Z,50.06
2023-05-08T07:04:40.421Z,49.55
2023-05-08T07:07:43.087Z,46.95
2023-05-08T07:10:46.801Z,48.35
2023-05-08T07:13:50.934Z,47.54
2023-05-08T07:16:53.723Z,47.84
2023-05-08T07:19:56.290Z,47.77
2023-05-08T07:22:59.309Z,47.19
2023-05-08T07:26:01.719Z,45.52
2023-05-08T07:29:04.642Z,49.13
2023-05-08T07:32:10.098Z,42.97
2023-05-08T07:35:13.497Z,41.74
2023-05-08T07:38:16.165Z,45.67
2023-05-08T07:41:19.644Z,41.20
2023-05-08T07:44:23.034Z,44.36
2023-05-08T07:47:26.605Z,41.45
2023-05-08T07:50:29.052Z,39.91
2023-05-08T07:53:31.791Z,41.97
2023-05-08T07:56:34.170Z,41.29
2023-05-08T07:59:36.912Z,41.14
2023-05-08T08:02:39.896Z,40.21
2023-05-08T08:05:43.158Z,41.69
2023-05-08T08:08:45.674Z,39.16
2023-05-08T08:11:48.412Z,38.83
2023-05-08T08:14:50.849Z,39.93
2023-05-08T08:17:53.640Z,42.25
2023-05-08T08:20:56.112Z,42.51
2023-05-08T08:23:59.895Z,39.73
2023-05-08T08:27:02.728Z,41.37
2023-05-08T08:30:16.066Z,39.45
2023-05-08T08:33:19.742Z,38.22
2023-05-08T08:36:22.524Z,38.62
2023-05-08T08:39:24.910Z,35.95
2023-05-08T08:42:27.635Z,35.20
2023-05-08T08:45:31.362Z,36.96
2023-05-08T08:48:34.205Z,36.33
2023-05-08T08:51:44.493Z,36.23
2023-05-08T08:54:47.612Z,37.54
2023-05-08T08:58:13.287Z,36.61
2023-05-08T09:01:18.478Z,37.98
2023-05-08T09:04:21.160Z,39.54
2023-05-08T09:07:24.547Z,35.61
2023-05-08T09:10:27.056Z,36.51
2023-05-08T09:13:30.397Z,38.14
2023-05-08T09:16:33.334Z,35.28
2023-05-08T09:19:36.842Z,35.76
2023-05-08T09:22:39.994Z,34.34
2023-05-08T09:25:44.417Z,37.59
2023-05-08T10:15:56.671Z,35.77
2023-05-08T10:19:06.181Z,34.03
2023-05-08T10:22:12.278Z,35.41
2023-05-08T10:25:21.083Z,35.35
2023-05-08T10:28:42.503Z,32.16
2023-05-08T10:31:46.883Z,29.94
2023-05-08T10:35:03.610Z,31.64
2023-05-08T10:38:08.939Z,33.24
2023-05-08T10:41:11.962Z,35.03
2023-05-08T10:44:15.265Z,32.63
2023-05-08T10:47:26.644Z,35.00
2023-05-08T10:50:38.838Z,35.95
2023-05-08T10:54:02.876Z,33.11
2023-05-08T10:57:12.790Z,35.04
2023-05-08T11:00:15.650Z,32.60
2023-05-08T11:03:31.250Z,32.47
2023-05-08T11:06:49.455Z,32.67
2023-05-08T11:09:52.313Z,34.79
2023-05-08T11:12:54.850Z,36.03
2023-05-08T11:15:57.926Z,33.53
2023-05-08T11:19:23.184Z,34.09
2023-05-08T11:22:29.200Z,32.08
2023-05-08T11:25:45.141Z,32.14
2023-05-08T11:28:53.881Z,32.52
2023-05-08T11:31:56.879Z,30.75
2023-05-08T11:34:59.557Z,33.46
2023-05-08T11:38:28.183Z,34.69
2023-05-08T11:41:30.838Z,29.62
2023-05-08T11:44:33.564Z,33.28
2023-05-08T11:47:44.522Z,31.69
2023-05-08T11:50:47.643Z,30.39
2023-05-08T11:53:50.448Z,31.53
2023-05-08T11:56:57.380Z,29.15
2023-05-08T12:00:08.093Z,30.80
2023-05-08T12:03:17.680Z,31.94
2023-05-08T12:06:21.978Z,32.62
2023-05-08T12:09:24.602Z,29.37
2023-05-08T12:12:39.623Z,34.65
2023-05-08T12:15:42.147Z,33.40
2023-05-08T12:18:45.137Z,32.67
2023-05-08T12:21:51.787Z,31.90
2023-05-08T12:24:54.904Z,30.49
2023-05-08T12:27:57.476Z,30.87
2023-05-08T12:31:01.156Z,31.19
2023-05-08T12:34:05.012Z,32.51
2023-05-08T12:37:08.062Z,33.67
2023-05-08T12:40:25.811Z,29.95
2023-05-08T12:43:35.234Z,29.85
2023-05-08T12:46:37.784Z,29.84
2023-05-08T12:49:40.721Z,29.26
2023-05-08T12:52:44.196Z,31.59
2023-05-08T12:56:02.387Z,32.34
2023-05-08T12:59:04.849Z,29.96
2023-05-08T13:02:24.234Z,29.27
2023-05-08T13:05:26.828Z,32.94
2023-05-08T13:08:39.319Z,30.04
2023-05-08T13:11:41.825Z,31.34
2023-05-08T13:14:44.567Z,30.40
2023-05-08T13:17:47.154Z,32.23
2023-05-08T13:20:50.191Z,31.35
2023-05-08T13:23:52.606Z,29.99
2023-05-08T13:26:55.424Z,30.84
2023-05-08T13:29:58.071Z,27.52
2023-05-08T13:33:01.267Z,31.11
2023-05-08T13:36:03.961Z,28.18
2023-05-08T13:39:06.799Z,31.68
2023-05-08T13:42:09.393Z,31.43
2023-05-08T13:45:14.889Z,27.96
2023-05-08T13:48:17.551Z,28.96
2023-05-08T13:51:20.437Z,30.16
2023-05-08T13:54:22.998Z,28.30
2023-05-08T13:57:26.813Z,29.97
2023-05-08T14:00:29.673Z,30.08
2023-05-08T14:03:32.612Z,30.37
2023-05-08T14:06:35.237Z,30.71
2023-05-08T14:09:38.204Z,30.18
2023-05-08T14:12:43.600Z,27.04
2023-05-08T14:15:46.888Z,27.75
2023-05-08T14:18:49.432Z,31.38
2023-05-08T14:21:53.160Z,30.90
2023-05-08T14:24:56.139Z,29.38
2023-05-08T14:27:58.822Z,33.20
2023-05-08T14:31:01.582Z,30.15
2023-05-08T14:34:05.497Z,31.89
2023-05-08T14:37:08.079Z,31.71
2023-05-08T14:40:11.045Z,29.13
2023-05-08T14:43:13.702Z,29.01
2023-05-08T14:46:17.235Z,30.19
2023-05-08T14:49:32.873Z,32.33
2023-05-08T14:52:40.855Z,34.34
2023-05-08T14:55:43.797Z,32.48
2023-05-08T14:58:46.734Z,30.13
2023-05-08T15:01:50.820Z,27.84
2023-05-08T15:04:55.895Z,27.79
2023-05-08T15:07:59.793Z,29.69
2023-05-08T15:11:02.611Z,32.62
2023-05-08T15:14:05.651Z,28.60
2023-05-08T15:17:08.332Z,31.18
2023-05-08T15:20:10.985Z,31.00
2023-05-08T15:23:13.709Z,30.76
2023-05-08T15:26:16.064Z,31.68
2023-05-08T15:29:20.448Z,29.54
2023-05-08T15:32:22.988Z,30.94
2023-05-08T15:35:25.852Z,34.37
2023-05-08T15:38:29.131Z,33.88
2023-05-08T15:41:32.140Z,28.48
2023-05-08T15:44:53.230Z,27.33
2023-05-08T15:47:57.314Z,27.66
2023-05-08T15:50:59.843Z,29.06
2023-05-08T15:54:02.685Z,27.62
2023-05-08T15:57:05.085Z,30.09
2023-05-08T16:00:08.635Z,28.96
2023-05-08T16:03:11.623Z,28.23
2023-05-08T16:06:14.499Z,28.43
2023-05-08T16:09:17.041Z,28.54
2023-05-08T16:12:20.109Z,31.05
2023-05-08T16:15:22.722Z,31.20
2023-05-08T16:18:25.398Z,29.42
2023-05-08T16:21:28.056Z,30.61
2023-05-08T16:24:33.600Z,29.52
2023-05-08T16:31:02.231Z,30.55
2023-05-08T16:34:07.203Z,30.01
2023-05-08T16:37:15.881Z,28.08
2023-05-08T16:40:18.374Z,30.14
2023-05-08T16:46:50.548Z,35.07
2023-05-08T16:53:35.497Z,33.68
2023-05-08T16:56:47.776Z,34.05
2023-05-08T16:59:59.125Z,33.83
2023-05-08T17:03:01.891Z,34.79
2023-05-08T17:06:08.693Z,35.85
2023-05-08T17:09:12.270Z,36.20
2023-05-08T17:12:15.309Z,38.64
2023-05-08T17:15:17.849Z,38.67
2023-05-08T17:18:20.581Z,39.62
2023-05-08T17:21:22.975Z,38.47
2023-05-08T17:24:25.800Z,37.24
2023-05-08T17:27:28.182Z,39.33
2023-05-08T17:30:31.605Z,40.20
2023-05-08T17:33:35.969Z,40.67
2023-05-08T17:36:38.934Z,42.31
2023-05-08T17:39:41.583Z,43.07
2023-05-08T17:42:44.483Z,41.74
2023-05-08T17:45:47.629Z,42.08
2023-05-08T17:48:50.360Z,43.27
2023-05-08T17:51:52.686Z,44.51
2023-05-08T17:54:55.368Z,45.22
2023-05-08T17:57:58.471Z,44.80
2023-05-08T18:01:01.387Z,44.54
2023-05-08T18:04:03.999Z,45.24
2023-05-08T18:07:07.379Z,44.82
2023-05-08T18:10:10.126Z,44.72
2023-05-08T18:13:13.442Z,44.90
2023-05-08T18:16:17.274Z,46.18
2023-05-08T18:19:21.255Z,46.83
2023-05-08T18:22:25.216Z,47.10
2023-05-08T18:25:29.071Z,44.95
2023-05-08T18:28:31.904Z,46.53
2023-05-08T18:31:35.169Z,48.07
2023-05-08T18:34:37.696Z,46.46
2023-05-08T18:37:40.663Z,48.18
2023-05-08T18:40:43.215Z,48.75
2023-05-08T18:43:46.514Z,49.39
2023-05-08T18:46:49.540Z,49.40
2023-05-08T18:49:57.255Z,49.66
2023-05-08T18:53:00.495Z,49.89
2023-05-08T18:56:04.167Z,50.65
2023-05-08T18:59:07.163Z,51.00
2023-05-08T19:02:11.369Z,52.78
2023-05-08T19:05:14.320Z,52.40
2023-05-08T19:08:20.269Z,52.60
2023-05-08T19:11:23.202Z,51.13
2023-05-08T19:14:26.353Z,50.13
2023-05-08T19:17:28.857Z,51.43
2023-05-08T19:20:32.330Z,52.25
2023-05-08T19:23:35.756Z,51.36
2023-05-08T19:26:39.077Z,52.00
2023-05-08T19:29:42.203Z,52.16
2023-05-08T19:32:45.007Z,51.87
2023-05-08T19:35:48.726Z,52.38
2023-05-08T19:38:53.205Z,55.56
2023-05-08T19:41:56.587Z,54.58
2023-05-08T19:44:59.434Z,57.03
2023-05-08T19:48:02.284Z,57.46
2023-05-08T19:51:07.678Z,57.60
2023-05-08T19:54:10.094Z,57.74
2023-05-08T19:57:13.920Z,57.50
2023-05-08T20:00:17.771Z,58.05
2023-05-08T20:03:21.309Z,56.99
2023-05-08T20:06:24.242Z,58.44
2023-05-08T20:09:27.238Z,60.43
2023-05-08T20:12:29.832Z,61.66
2023-05-08T20:15:32.619Z,61.20
2023-05-08T20:18:36.097Z,59.76
2023-05-08T20:21:38.953Z,61.50
2023-05-08T20:24:41.290Z,63.23
2023-05-08T20:27:44.128Z,64.39
2023-05-08T20:30:46.553Z,64.12
2023-05-08T20:33:49.599Z,64.31
2023-05-08T20:36:52.302Z,64.15
2023-05-08T20:39:55.112Z,64.40
2023-05-08T20:42:57.478Z,63.54
2023-05-08T20:46:00.354Z,61.69
2023-05-08T20:49:04.226Z,62.22
2023-05-08T20:52:07.137Z,65.29
2023-05-08T20:55:10.195Z,65.61
2023-05-08T20:58:13.016Z,65.23
2023-05-08T21:01:16.058Z,64.68
2023-05-08T21:04:19.754Z,64.92
2023-05-08T21:07:22.245Z,65.95
2023-05-08T21:10:27.626Z,66.62
2023-05-08T21:13:30.243Z,65.30
2023-05-08T21:16:33.148Z,65.55
2023-05-08T21:19:35.840Z,65.76
2023-05-08T21:22:38.650Z,66.29
2023-05-08T21:25:50.820Z,67.42
2023-05-08T21:28:54.052Z,66.84
2023-05-08T21:31:56.720Z,67.44
2023-05-08T21:34:59.438Z,68.48
2023-05-08T21:38:01.833Z,68.45
2023-05-08T21:41:11.026Z,67.22
2023-05-08T21:44:13.494Z,67.49
2023-05-08T21:47:16.129Z,67.69
2023-05-08T21:50:18.629Z,69.83
2023-05-08T21:53:21.451Z,68.84
2023-05-08T21:56:24.278Z,67.81
2023-05-08T21:59:27.694Z,68.06
2023-05-08T22:02:30.136Z,69.30
2023-05-08T22:05:33.024Z,68.71
2023-05-08T22:08:36.242Z,67.85
2023-05-08T22:11:38.906Z,68.61
2023-05-08T22:14:41.395Z,69.46
2023-05-08T22:17:44.193Z,70.78
2023-05-08T22:20:46.748Z,72.54
2023-05-08T22:23:49.481Z,72.14
2023-05-08T22:26:51.903Z,71.40
2023-05-08T22:29:54.596Z,71.78
2023-05-08T22:32:58.093Z,73.63
2023-05-08T22:36:01.325Z,73.53
2023-05-08T22:39:06.919Z,73.40
2023-05-08T22:42:09.643Z,73.69
2023-05-08T22:45:12.991Z,75.30
2023-05-08T22:48:18.501Z,74.77
2023-05-08T22:51:21.117Z,75.64
2023-05-08T22:54:23.804Z,74.73
2023-05-08T22:57:26.067Z,74.27
2023-05-08T23:00:28.949Z,74.21
2023-05-08T23:03:31.393Z,73.84
2023-05-08T23:06:34.105Z,75.89
2023-05-08T23:09:36.540Z,75.68
2023-05-08T23:12:39.330Z,75.75
2023-05-08T23:15:41.847Z,76.46
2023-05-08T23:18:44.708Z,76.26
2023-05-08T23:21:47.308Z,75.08
2023-05-08T23:24:50.047Z,74.49
2023-05-08T23:27:52.497Z,74.65
2023-05-08T23:30:55.238Z,76.61
2023-05-08T23:33:57.742Z,75.46
2023-05-08T23:37:02.074Z,75.00
2023-05-08T23:40:06.223Z,76.06
2023-05-08T23:43:08.894Z,75.96
2023-05-08T23:46:11.935Z,75.25
2023-05-08T23:49:14.793Z,75.16
2023-05-08T23:52:17.558Z,75.10
2023-05-08T23:55:20.675Z,75.91
2023-05-08T23:58:23.108Z,77.91
